createdAt,value
2022-08-21T00:01:42.400Z,78.54
2022-08-21T00:04:10.920Z,78.50
2022-08-21T00:06:41.292Z,78.95
2022-08-21T00:09:09.083Z,78.82
2022-08-21T00:11:38.445Z,79.05
2022-08-21T00:14:06.856Z,79.42
2022-08-21T00:16:34.233Z,79.99
2022-08-21T00:19:00.840Z,80.21
2022-08-21T00:21:27.387Z,80.51
2022-08-21T00:23:53.888Z,80.48
2022-08-21T00:26:20.353Z,80.55
2022-08-21T00:28:47.443Z,80.70
2022-08-21T00:31:13.861Z,80.68
2022-08-21T00:33:40.324Z,81.07
2022-08-21T00:36:07.216Z,81.09
2022-08-21T00:38:34.705Z,81.43
2022-08-21T00:41:13.392Z,81.85
2022-08-21T00:43:52.562Z,82.37
2022-08-21T00:46:19.040Z,82.68
2022-08-21T00:48:45.623Z,82.94
2022-08-21T00:51:23.955Z,83.50
2022-08-21T00:53:55.047Z,83.74
2022-08-21T00:56:23.878Z,84.16
2022-08-21T00:58:55.024Z,84.55
2022-08-21T01:01:22.492Z,84.79
2022-08-21T01:03:50.282Z,85.26
2022-08-21T01:06:17.023Z,85.41
2022-08-21T01:08:47.091Z,85.53
2022-08-21T01:11:16.036Z,85.81
2022-08-21T01:13:46.765Z,85.83
2022-08-21T01:16:16.628Z,85.55
2022-08-21T01:18:44.067Z,85.79
2022-08-21T01:21:18.723Z,86.07
2022-08-21T01:23:49.261Z,86.03
2022-08-21T01:26:18.612Z,86.25
2022-08-21T01:29:07.425Z,86.35
2022-08-21T01:31:34.887Z,86.63
2022-08-21T01:34:02.464Z,86.85
2022-08-21T01:36:29.061Z,87.10
2022-08-21T01:38:56.112Z,87.14
2022-08-21T01:41:23.159Z,87.54
2022-08-21T01:43:50.176Z,87.65
2022-08-21T01:46:17.149Z,87.84
2022-08-21T01:48:43.960Z,88.00
2022-08-21T01:51:10.671Z,88.04
2022-08-21T01:53:37.678Z,87.89
2022-08-21T01:56:12.292Z,88.22
2022-08-21T01:58:42.406Z,88.24
2022-08-21T02:01:10.387Z,88.47
2022-08-21T02:03:37.397Z,88.78
2022-08-21T02:06:08.282Z,88.89
2022-08-21T02:08:35.454Z,89.16
2022-08-21T02:11:02.314Z,89.32
2022-08-21T02:13:28.959Z,89.36
2022-08-21T02:15:55.454Z,89.75
2022-08-21T02:18:21.953Z,89.82
2022-08-21T02:20:55.802Z,89.94
2022-08-21T02:23:26.898Z,90.21
2022-08-21T02:25:55.647Z,90.24
2022-08-21T02:28:22.525Z,90.67
2022-08-21T02:30:50.235Z,90.63
2022-08-21T02:33:17.665Z,90.80
2022-08-21T02:35:46.182Z,90.56
2022-08-21T02:38:15.546Z,90.49
2022-08-21T02:40:48.206Z,90.69
2022-08-21T02:43:16.129Z,90.85
2022-08-21T02:45:44.898Z,91.01
2022-08-21T02:48:14.586Z,91.20
2022-08-21T02:50:54.035Z,91.38
2022-08-21T02:53:20.843Z,91.54
2022-08-21T02:55:49.960Z,91.87
2022-08-21T02:58:18.855Z,92.00
2022-08-21T03:00:46.561Z,92.23
2022-08-21T03:03:14.631Z,92.19
2022-08-21T03:05:41.728Z,92.23
2022-08-21T03:08:11.980Z,92.47
2022-08-21T03:10:41.084Z,92.18
2022-08-21T03:13:08.760Z,92.29
2022-08-21T03:15:35.675Z,92.31
2022-08-21T03:18:03.099Z,92.34
2022-08-21T03:20:29.681Z,92.32
2022-08-21T03:22:56.537Z,92.26
2022-08-21T03:25:40.101Z,92.40
2022-08-21T03:28:13.214Z,92.54
2022-08-21T03:30:44.795Z,92.82
2022-08-21T03:33:13.259Z,92.99
2022-08-21T03:35:44.207Z,93.26
2022-08-21T03:38:13.598Z,93.36
2022-08-21T03:40:40.304Z,93.28
2022-08-21T03:43:10.336Z,93.33
2022-08-21T03:45:37.304Z,93.34
2022-08-21T03:48:05.061Z,93.29
2022-08-21T03:50:34.769Z,93.24
2022-08-21T03:53:01.974Z,93.17
2022-08-21T03:55:28.749Z,93.36
2022-08-21T03:57:55.198Z,93.48
2022-08-21T04:00:21.927Z,93.51
2022-08-21T04:02:48.691Z,93.60
2022-08-21T04:05:28.027Z,93.84
2022-08-21T04:07:56.283Z,94.03
2022-08-21T04:10:25.049Z,94.01
2022-08-21T04:12:53.007Z,94.00
2022-08-21T04:15:19.965Z,94.17
2022-08-21T04:17:46.382Z,94.67
2022-08-21T04:20:13.624Z,94.59
2022-08-21T04:22:40.080Z,95.09
2022-08-21T04:25:08.287Z,95.35
2022-08-21T04:27:35.457Z,95.91
2022-08-21T04:30:02.058Z,96.18
2022-08-21T04:32:28.884Z,96.73
2022-08-21T04:35:04.893Z,96.65
2022-08-21T04:37:32.032Z,96.75
2022-08-21T04:39:59.241Z,96.62
2022-08-21T04:42:26.811Z,96.67
2022-08-21T04:44:53.328Z,96.72
2022-08-21T04:47:19.917Z,96.52
2022-08-21T04:49:46.451Z,96.36
2022-08-21T04:52:15.943Z,96.69
2022-08-21T04:54:45.872Z,96.82
2022-08-21T04:57:13.791Z,96.95
2022-08-21T04:59:45.380Z,96.89
2022-08-21T05:02:13.485Z,97.05
2022-08-21T05:04:45.849Z,97.36
2022-08-21T05:07:18.054Z,97.56
2022-08-21T05:10:05.188Z,97.77
2022-08-21T05:12:32.767Z,97.61
2022-08-21T05:14:59.189Z,97.51
2022-08-21T05:17:25.707Z,96.92
2022-08-21T05:19:52.103Z,96.47
2022-08-21T05:22:25.228Z,94.81
2022-08-21T05:24:53.206Z,94.41
2022-08-21T05:27:19.885Z,92.84
2022-08-21T05:29:46.722Z,91.89
2022-08-21T05:32:14.805Z,91.31
2022-08-21T05:34:42.424Z,90.80
2022-08-21T05:37:11.710Z,89.76
2022-08-21T05:40:20.769Z,88.83
2022-08-21T05:42:24.573Z,88.25
2022-08-21T05:44:51.011Z,87.65
2022-08-21T05:47:17.486Z,87.54
2022-08-21T05:49:43.897Z,87.49
2022-08-21T05:52:10.528Z,86.57
2022-08-21T05:54:38.534Z,86.15
2022-08-21T05:57:05.196Z,85.86
2022-08-21T05:59:31.628Z,85.76
2022-08-21T06:02:01.193Z,85.06
2022-08-21T06:04:30.740Z,84.61
2022-08-21T06:06:57.146Z,84.04
2022-08-21T06:09:23.563Z,84.02
2022-08-21T06:11:50.097Z,84.00
2022-08-21T06:14:17.354Z,83.83
2022-08-21T06:16:43.816Z,83.62
2022-08-21T06:19:10.231Z,83.05
2022-08-21T06:21:36.768Z,82.55
2022-08-21T06:24:03.440Z,82.46
2022-08-21T06:26:30.162Z,81.89
2022-08-21T06:28:56.596Z,81.52
2022-08-21T06:31:25.167Z,81.25
2022-08-21T06:33:52.905Z,80.77
2022-08-21T06:36:21.722Z,80.23
2022-08-21T06:38:50.999Z,79.90
2022-08-21T06:41:24.113Z,79.07
2022-08-21T06:43:53.333Z,78.94
2022-08-21T06:46:19.972Z,78.54
2022-08-21T06:48:46.414Z,78.28
2022-08-21T06:51:13.134Z,77.68
2022-08-21T06:53:39.647Z,78.06
2022-08-21T06:56:06.240Z,77.74
2022-08-21T06:58:33.012Z,77.57
2022-08-21T07:01:01.255Z,77.31
2022-08-21T07:03:33.084Z,77.64
2022-08-21T07:05:59.656Z,77.24
2022-08-21T07:08:27.533Z,76.90
2022-08-21T07:10:56.448Z,75.64
2022-08-21T07:13:22.955Z,75.88
2022-08-21T07:15:49.451Z,75.54
2022-08-21T07:18:16.288Z,75.21
2022-08-21T07:20:43.154Z,73.78
2022-08-21T07:23:31.403Z,73.56
2022-08-21T07:25:57.925Z,71.75
2022-08-21T07:28:24.324Z,72.23
2022-08-21T07:30:53.532Z,72.02
2022-08-21T07:33:20.073Z,71.84
2022-08-21T07:35:46.690Z,71.91
2022-08-21T07:38:13.139Z,72.18
2022-08-21T07:40:39.800Z,72.02
2022-08-21T07:43:06.659Z,71.78
2022-08-21T07:45:33.486Z,71.57
2022-08-21T07:47:59.946Z,71.39
2022-08-21T07:50:26.772Z,70.32
2022-08-21T07:52:54.107Z,70.46
2022-08-21T07:55:22.550Z,69.91
2022-08-21T07:57:49.888Z,69.38
2022-08-21T08:00:20.681Z,69.17
2022-08-21T08:02:50.781Z,68.62
2022-08-21T08:05:19.730Z,68.66
2022-08-21T08:07:46.320Z,67.20
2022-08-21T08:10:12.844Z,67.04
2022-08-21T08:12:41.523Z,65.89
2022-08-21T08:15:10.890Z,65.80
2022-08-21T08:17:38.632Z,65.64
2022-08-21T08:20:07.759Z,65.58
2022-08-21T08:22:36.170Z,66.35
2022-08-21T08:25:06.307Z,65.93
2022-08-21T08:27:35.706Z,65.90
2022-08-21T08:30:02.470Z,65.73
2022-08-21T08:32:28.928Z,65.56
2022-08-21T08:34:55.343Z,66.07
2022-08-21T08:37:21.948Z,65.59
2022-08-21T08:39:52.060Z,65.48
2022-08-21T08:42:36.517Z,65.37
2022-08-21T08:45:13.553Z,64.78
2022-08-21T08:47:45.781Z,63.94
2022-08-21T08:50:22.628Z,64.00
2022-08-21T08:52:50.890Z,63.55
2022-08-21T08:55:31.902Z,63.70
2022-08-21T08:57:58.321Z,63.37
2022-08-21T09:00:25.450Z,63.35
2022-08-21T09:03:01.032Z,63.28
2022-08-21T09:05:47.593Z,63.90
2022-08-21T09:08:36.107Z,62.92
2022-08-21T09:11:10.369Z,62.92
2022-08-21T09:13:50.825Z,62.86
2022-08-21T09:16:48.288Z,62.92
2022-08-21T09:19:35.140Z,63.39
2022-08-21T09:22:29.017Z,61.73
2022-08-21T09:24:55.466Z,61.91
2022-08-21T09:27:23.197Z,61.89
2022-08-21T09:29:53.276Z,61.92
2022-08-21T09:32:37.033Z,61.43
2022-08-21T09:35:18.305Z,60.07
2022-08-21T09:37:55.685Z,59.47
2022-08-21T09:40:34.148Z,60.07
2022-08-21T09:43:04.529Z,60.24
2022-08-21T09:45:33.737Z,59.27
2022-08-21T09:48:33.257Z,59.30
2022-08-21T09:51:09.644Z,59.23
2022-08-21T09:53:43.864Z,58.99
2022-08-21T09:56:38.233Z,58.82
2022-08-21T09:59:16.238Z,55.43
2022-08-21T10:01:48.908Z,55.18
2022-08-21T10:04:15.809Z,55.66
2022-08-21T10:06:42.410Z,56.21
2022-08-21T10:09:17.078Z,56.31
2022-08-21T10:12:11.672Z,54.98
2022-08-21T10:14:45.257Z,55.38
2022-08-21T10:17:44.172Z,54.85
2022-08-21T10:20:18.738Z,55.02
2022-08-21T10:23:24.971Z,54.91
2022-08-21T10:26:14.062Z,53.46
2022-08-21T10:28:56.700Z,51.86
2022-08-21T10:31:33.657Z,50.87
2022-08-21T10:34:17.074Z,51.10
2022-08-21T10:37:16.009Z,50.01
2022-08-21T10:40:02.386Z,50.34
2022-08-21T10:42:37.043Z,49.25
2022-08-21T10:45:10.794Z,51.33
2022-08-21T10:47:49.747Z,53.49
2022-08-21T10:50:42.770Z,54.78
2022-08-21T10:53:41.005Z,51.61
2022-08-21T10:56:15.925Z,49.48
2022-08-21T10:58:56.961Z,48.83
2022-08-21T11:01:34.735Z,46.90
2022-08-21T11:04:21.468Z,46.11
2022-08-21T11:06:54.297Z,46.73
2022-08-21T11:09:24.914Z,47.16
2022-08-21T11:11:59.227Z,45.79
2022-08-21T11:14:56.920Z,45.96
2022-08-21T11:17:32.095Z,46.30
2022-08-21T11:20:10.770Z,45.13
2022-08-21T11:22:45.266Z,44.64
2022-08-21T11:25:23.395Z,43.14
2022-08-21T11:27:58.014Z,42.21
2022-08-21T11:30:32.658Z,41.15
2022-08-21T11:33:14.215Z,41.25
2022-08-21T11:36:04.985Z,41.12
2022-08-21T11:38:43.029Z,37.98
2022-08-21T11:41:23.879Z,37.16
2022-08-21T11:43:59.431Z,36.55
2022-08-21T11:46:32.181Z,36.88
2022-08-21T11:49:15.823Z,36.00
2022-08-21T11:51:46.438Z,35.13
2022-08-21T11:54:39.528Z,33.92
2022-08-21T11:57:19.377Z,34.49
2022-08-21T12:00:23.297Z,32.90
2022-08-21T12:02:53.680Z,32.71
2022-08-21T12:05:28.856Z,30.39
2022-08-21T12:08:29.480Z,31.12
2022-08-21T12:11:09.924Z,30.64
2022-08-21T12:14:01.747Z,30.61
2022-08-21T12:16:31.218Z,29.93
2022-08-21T12:19:09.740Z,30.80
2022-08-21T12:21:54.194Z,31.04
2022-08-21T12:24:36.553Z,30.32
2022-08-21T12:27:26.556Z,30.62
2022-08-21T12:29:57.652Z,29.60
2022-08-21T12:32:26.095Z,29.46
2022-08-21T12:35:23.872Z,29.96
2022-08-21T12:38:21.010Z,30.12
2022-08-21T12:40:51.365Z,29.78
2022-08-21T12:43:26.781Z,30.46
2022-08-21T12:45:53.412Z,30.47
2022-08-21T12:48:31.977Z,30.83
2022-08-21T12:51:09.346Z,29.88
2022-08-21T12:53:45.276Z,29.46
2022-08-21T12:56:14.758Z,29.07
2022-08-21T12:58:45.765Z,28.78
2022-08-21T13:01:27.464Z,29.17
2022-08-21T13:04:04.071Z,29.34
2022-08-21T13:06:44.469Z,29.17
2022-08-21T13:09:16.200Z,29.05
2022-08-21T13:11:45.850Z,29.10
2022-08-21T13:14:26.994Z,29.26
2022-08-21T13:16:55.967Z,28.87
2022-08-21T13:19:24.164Z,28.52
2022-08-21T13:21:53.235Z,27.90
2022-08-21T13:24:43.830Z,27.29
2022-08-21T13:27:29.636Z,27.36
2022-08-21T13:30:10.779Z,27.46
2022-08-21T13:32:41.709Z,27.52
2022-08-21T13:35:20.975Z,27.48
2022-08-21T13:37:50.728Z,26.58
2022-08-21T13:40:23.107Z,26.34
2022-08-21T13:42:49.975Z,25.60
2022-08-21T13:45:24.272Z,25.45
2022-08-21T13:47:51.249Z,26.06
2022-08-21T13:50:21.362Z,25.64
2022-08-21T13:52:55.321Z,26.12
2022-08-21T13:55:22.441Z,26.53
2022-08-21T13:58:01.174Z,26.64
2022-08-21T14:00:30.092Z,26.93
2022-08-21T14:03:04.601Z,26.52
2022-08-21T14:05:36.424Z,26.79
2022-08-21T14:08:12.010Z,27.06
2022-08-21T14:10:45.179Z,27.69
2022-08-21T14:13:25.767Z,27.83
2022-08-21T14:15:58.865Z,28.08
2022-08-21T14:18:26.869Z,28.25
2022-08-21T14:21:05.341Z,28.34
2022-08-21T14:23:31.851Z,29.15
2022-08-21T14:26:04.357Z,29.68
2022-08-21T14:28:34.137Z,28.95
2022-08-21T14:31:16.708Z,28.47
2022-08-21T14:33:43.447Z,28.18
2022-08-21T14:36:10.188Z,28.17
2022-08-21T14:38:39.017Z,28.00
2022-08-21T14:41:16.725Z,27.93
2022-08-21T14:43:44.464Z,27.94
2022-08-21T14:46:13.070Z,27.84
2022-08-21T14:48:39.467Z,28.18
2022-08-21T14:51:06.107Z,27.69
2022-08-21T14:53:32.576Z,28.11
2022-08-21T14:56:07.970Z,27.90
2022-08-21T14:58:37.014Z,27.71
2022-08-21T15:01:06.657Z,28.19
2022-08-21T15:03:33.745Z,28.13
2022-08-21T15:06:01.280Z,28.01
2022-08-21T15:08:27.715Z,28.58
2022-08-21T15:11:11.038Z,28.74
2022-08-21T15:13:38.665Z,28.18
2022-08-21T15:16:05.271Z,27.88
2022-08-21T15:18:31.911Z,28.02
2022-08-21T15:20:58.514Z,28.19
2022-08-21T15:23:24.984Z,28.36
2022-08-21T15:25:53.374Z,28.82
2022-08-21T15:28:21.185Z,28.57
2022-08-21T15:30:48.283Z,29.18
2022-08-21T15:33:15.358Z,29.17
2022-08-21T15:35:41.917Z,29.39
2022-08-21T15:38:11.121Z,29.39
2022-08-21T15:40:38.928Z,30.08
2022-08-21T15:43:06.877Z,29.71
2022-08-21T15:45:34.327Z,30.06
2022-08-21T15:48:01.685Z,29.32
2022-08-21T15:50:29.488Z,30.38
2022-08-21T15:52:56.680Z,29.57
2022-08-21T15:55:24.079Z,30.13
2022-08-21T15:57:57.458Z,30.24
2022-08-21T16:00:25.540Z,30.61
2022-08-21T16:02:58.202Z,31.19
2022-08-21T16:05:24.913Z,30.70
2022-08-21T16:07:52.467Z,31.03
2022-08-21T16:10:22.475Z,30.39
2022-08-21T16:12:55.228Z,30.88
2022-08-21T16:15:21.969Z,30.75
2022-08-21T16:17:50.589Z,30.66
2022-08-21T16:20:21.721Z,31.00
2022-08-21T16:22:48.882Z,30.61
2022-08-21T16:25:16.033Z,31.14
2022-08-21T16:27:47.333Z,30.56
2022-08-21T16:30:24.467Z,30.41
2022-08-21T16:32:51.804Z,30.14
2022-08-21T16:35:21.339Z,29.78
2022-08-21T16:37:52.805Z,30.27
2022-08-21T16:40:20.106Z,30.38
2022-08-21T16:42:46.589Z,30.82
2022-08-21T16:45:16.473Z,31.27
2022-08-21T16:47:44.473Z,31.16
2022-08-21T16:50:15.280Z,31.59
2022-08-21T16:52:41.686Z,31.35
2022-08-21T16:55:09.028Z,31.37
2022-08-21T16:57:36.805Z,31.57
2022-08-21T17:00:08.607Z,31.96
2022-08-21T17:02:43.428Z,32.32
2022-08-21T17:05:13.673Z,32.11
2022-08-21T17:07:41.925Z,32.78
2022-08-21T17:10:09.931Z,32.28
2022-08-21T17:12:36.659Z,32.09
2022-08-21T17:15:15.438Z,32.72
2022-08-21T17:17:45.735Z,33.71
2022-08-21T17:20:12.469Z,33.74
2022-08-21T17:22:38.894Z,35.13
2022-08-21T17:25:05.843Z,33.33
2022-08-21T17:27:33.229Z,33.32
2022-08-21T17:30:00.154Z,34.83
2022-08-21T17:32:26.547Z,35.20
2022-08-21T17:34:53.147Z,34.29
2022-08-21T17:37:20.877Z,34.16
2022-08-21T17:39:47.634Z,34.15
2022-08-21T17:42:15.090Z,34.04
2022-08-21T17:44:45.318Z,34.38
2022-08-21T17:47:13.612Z,34.38
2022-08-21T17:49:40.500Z,34.71
2022-08-21T17:52:07.695Z,34.45
2022-08-21T17:54:36.276Z,34.66
2022-08-21T17:57:04.486Z,35.01
2022-08-21T17:59:31.121Z,35.22
2022-08-21T18:02:01.271Z,35.43
2022-08-21T18:04:31.201Z,35.83
2022-08-21T18:06:57.883Z,35.77
2022-08-21T18:09:27.988Z,36.29
2022-08-21T18:11:57.088Z,37.81
2022-08-21T18:14:28.777Z,36.82
2022-08-21T18:16:56.233Z,37.41
2022-08-21T18:19:25.982Z,37.14
2022-08-21T18:21:54.252Z,37.98
2022-08-21T18:24:22.365Z,37.57
2022-08-21T18:26:49.901Z,37.94
2022-08-21T18:29:19.867Z,37.87
2022-08-21T18:31:46.570Z,39.73
2022-08-21T18:34:27.106Z,40.58
2022-08-21T18:36:55.308Z,42.69
2022-08-21T18:39:38.351Z,45.14
2022-08-21T18:42:10.412Z,45.76
2022-08-21T18:44:38.204Z,46.03
2022-08-21T18:47:14.252Z,43.05
2022-08-21T18:49:41.628Z,43.04
2022-08-21T18:52:08.684Z,44.03
2022-08-21T18:54:37.377Z,43.12
2022-08-21T18:57:08.453Z,43.02
2022-08-21T18:59:36.188Z,44.55
2022-08-21T19:02:07.832Z,44.22
2022-08-21T19:04:44.407Z,44.59
2022-08-21T19:07:13.435Z,46.62
2022-08-21T19:09:40.648Z,47.29
2022-08-21T19:12:10.362Z,48.71
2022-08-21T19:14:40.816Z,49.39
2022-08-21T19:17:08.603Z,48.91
2022-08-21T19:19:36.225Z,48.24
2022-08-21T19:22:06.194Z,48.13
2022-08-21T19:24:38.310Z,49.76
2022-08-21T19:27:04.940Z,51.19
2022-08-21T19:29:35.006Z,51.02
2022-08-21T19:32:04.634Z,49.07
2022-08-21T19:34:31.476Z,48.51
2022-08-21T19:36:59.248Z,47.17
2022-08-21T19:39:25.768Z,46.09
2022-08-21T19:41:57.008Z,45.80
2022-08-21T19:44:28.165Z,45.53
2022-08-21T19:46:57.795Z,46.29
2022-08-21T19:49:27.512Z,46.01
2022-08-21T19:51:54.439Z,46.25
2022-08-21T19:54:22.455Z,46.85
2022-08-21T19:56:50.494Z,47.39
2022-08-21T19:59:18.588Z,47.19
2022-08-21T20:01:51.689Z,48.02
2022-08-21T20:04:19.474Z,49.33
2022-08-21T20:06:47.110Z,48.99
2022-08-21T20:09:14.459Z,48.76
2022-08-21T20:11:47.934Z,48.03
2022-08-21T20:14:18.022Z,47.88
2022-08-21T20:16:47.118Z,48.63
2022-08-21T20:19:13.947Z,49.21
2022-08-21T20:27:20.373Z,50.84
2022-08-21T20:29:46.795Z,51.17
2022-08-21T20:32:16.669Z,51.40
2022-08-21T20:34:44.944Z,51.83
2022-08-21T20:37:12.006Z,50.38
2022-08-21T20:39:38.482Z,49.85
2022-08-21T20:42:08.958Z,50.18
2022-08-21T20:44:36.879Z,50.09
2022-08-21T20:47:08.639Z,49.60
2022-08-21T20:49:44.448Z,49.75
2022-08-21T20:52:11.551Z,49.82
2022-08-21T20:54:56.177Z,49.88
2022-08-21T20:57:28.574Z,50.27
2022-08-21T21:00:15.934Z,49.98
2022-08-21T21:03:14.522Z,49.96
2022-08-21T21:05:48.235Z,50.55
2022-08-21T21:08:25.329Z,51.78
2022-08-21T21:11:33.983Z,53.00
2022-08-21T21:14:17.028Z,53.41
2022-08-21T21:19:43.541Z,52.92
2022-08-21T21:22:17.346Z,52.87
2022-08-21T21:24:59.881Z,53.02
2022-08-21T21:27:36.577Z,53.43
2022-08-21T21:30:14.826Z,53.99
2022-08-21T21:32:42.650Z,55.41
2022-08-21T21:35:13.637Z,56.28
2022-08-21T21:38:02.702Z,56.46
2022-08-21T21:40:38.360Z,56.75
2022-08-21T21:43:17.322Z,57.85
2022-08-21T21:45:58.921Z,58.14
2022-08-21T21:48:50.994Z,58.87
2022-08-21T21:51:35.696Z,59.29
2022-08-21T21:54:29.821Z,59.87
2022-08-21T21:57:15.317Z,60.61
2022-08-21T22:00:18.312Z,61.15
2022-08-21T22:05:45.499Z,62.03
2022-08-21T22:08:36.988Z,62.46
2022-08-21T22:11:24.176Z,62.84
2022-08-21T22:13:55.364Z,63.23
2022-08-21T22:16:21.958Z,63.61
2022-08-21T22:19:02.293Z,63.94
2022-08-21T22:21:39.237Z,64.26
2022-08-21T22:24:14.960Z,64.38
2022-08-21T22:26:46.484Z,64.52
2022-08-21T22:29:16.662Z,64.82
2022-08-21T22:31:59.605Z,64.92
2022-08-21T22:34:28.664Z,64.41
2022-08-21T22:37:02.696Z,64.00
2022-08-21T22:39:42.981Z,63.23
2022-08-21T22:42:20.600Z,63.17
2022-08-21T22:44:53.048Z,63.22
2022-08-21T22:47:22.822Z,63.35
2022-08-21T22:49:52.390Z,63.12
2022-08-21T22:52:36.971Z,62.97
2022-08-21T22:55:24.725Z,63.37
2022-08-21T22:58:09.319Z,63.81
2022-08-21T23:00:51.070Z,64.11
2022-08-21T23:03:33.786Z,64.34
2022-08-21T23:06:12.669Z,64.36
2022-08-21T23:08:39.864Z,64.84
2022-08-21T23:11:17.110Z,65.34
2022-08-21T23:13:50.144Z,65.69
2022-08-21T23:16:37.787Z,66.02
2022-08-21T23:19:26.067Z,66.25
2022-08-21T23:22:00.685Z,66.41
2022-08-21T23:24:50.723Z,66.58
2022-08-21T23:27:41.902Z,66.78
2022-08-21T23:30:34.138Z,67.27
2022-08-21T23:33:26.722Z,67.89
2022-08-21T23:36:32.448Z,68.27
2022-08-21T23:39:24.764Z,68.75
2022-08-21T23:41:58.457Z,68.80
2022-08-21T23:44:51.145Z,69.03
2022-08-21T23:47:21.176Z,69.39
2022-08-21T23:49:53.873Z,69.97
2022-08-21T23:52:29.025Z,70.28
2022-08-21T23:55:21.580Z,70.47
2022-08-21T23:57:59.828Z,70.65
